Impacts TAF Board
For situational awareness. Not to be used for flight planning purposes.
IDs:

KMSY - New Orleans/Armstron, LA, US

Issued at 1142 UTC 25 Oct 2020
Updated at 1147 UTC 25 Oct 2020
Potential Impact None Slight Moderate High
Time1053Z 25/12Z 25/13Z 25/14Z 25/15Z 25/16Z 25/17Z 25/18Z 25/19Z 25/20Z 25/21Z 25/22Z 25/23Z 26/00Z>>
Type OBS PRVL PRVL PRVL PRVL PRVL PRVL PRVL PRVL PRVL PRVL PRVL PRVL PRVL
VIS 10 >6 >6 >6 >6 >6 >6 >6 >6 >6 >6 >6 >6 >6
CIG 4 4 4 4 15 20 70 70 70 70 70 70 70 70
Cover OVC OVC OVC OVC BKN BKN BKN BKN BKN BKN BKN BKN BKN BKN
FltCat LIFR LIFR LIFR LIFR MVFR MVFR VFR VFR VFR VFR VFR VFR VFR VFR
WX -- -- -- -- -- -- -- -- -- -- -- -- -- --
WDir 340 340 340 340 360 360 360 360 360 360 360 360 360 360
WSpd 6 6 6 6 7 7 7 7 7 7 7 7 7 7
WGst -- -- -- -- -- -- -- -- -- -- -- -- -- --
R01/19
XWnd 3 3 3 3 2 2 2 2 2 2 2 2 2 2
HWnd 5 5 5 5 7 7 7 7 7 7 7 7 7 7
R10/28
XWnd 5 5 5 5 7 7 7 7 7 7 7 7 7 7
HWnd -3 -3 -3 -3 -2 -2 -2 -2 -2 -2 -2 -2 -2 -2
Raw TAF
KMSY 251142Z 2512/2618 34006KT P6SM OVC004
  FM251500 36007KT P6SM BKN015
  FM251600 36007KT P6SM BKN020
  FM251700 36007KT P6SM BKN070
  FM260500 05006KT P6SM FEW200


Raw METAR
KMSY 251053Z 34006KT 10SM OVC004 17/15 A2996 RMK AO2 SLP147 T01670150 $
KMSY 250953Z 01007KT 10SM OVC004 17/15 A2994 RMK AO2 SLP143 T01670150 $
KMSY 250853Z 35006KT 10SM OVC006 17/15 A2994 RMK AO2 SLP140 T01720150 56003 $

METAR Board
Radar Display
Forecast Discussion
For situational awareness. Not to be used for flight planning purposes.